Capitol Logistics 2195

Operating for AJT



KDEN
Denver International Airport
Denver, Colorado
KCVG
Cincinnati/Northern Kentucky International Airport
Covington, Kentucky

Activity Log

Date Flight Route Aircraft Duration
No Flights Yet

Route Details

Aircraft Information
Primary: Boeing 767-300BDSF
Backup: Airbus A300-600F
Route Data
Distance: 928nm
Duration: 2h 06m
Recm'd Route: EMMYS7 ZIRKL MCK MCI J24 STL ENL SARGO3
Origin Wx: KDEN 020453Z 17008KT 7SM SCT220 19/12 A3034 RMK AO2 SLP202 T01890122 $
Dest. Wx: KCVG 020452Z 34006KT 10SM CLR 18/12 A3007 RMK AO2 SLP174 T01830122 402720139
Notes: